createdAt,value
2022-09-03T00:00:02.393Z,98118.53
2022-09-03T00:03:08.123Z,98122.28
2022-09-03T00:05:47.543Z,98119.31
2022-09-03T00:08:26.681Z,98118.81
2022-09-03T00:10:59.656Z,98117.31
2022-09-03T00:13:31.365Z,98121.59
2022-09-03T00:16:00.011Z,98125.03
2022-09-03T00:18:32.344Z,98120.75
2022-09-03T00:21:08.870Z,98129.53
2022-09-03T00:23:39.112Z,98117.16
2022-09-03T00:26:12.550Z,98124.16
2022-09-03T00:28:43.782Z,98135.28
2022-09-03T00:31:40.380Z,98136.00
2022-09-03T00:34:16.018Z,98140.53
2022-09-03T00:36:44.924Z,98145.84
2022-09-03T00:39:15.306Z,98145.66
2022-09-03T00:42:39.745Z,98136.06
2022-09-03T00:45:34.085Z,98137.34
2022-09-03T00:48:27.800Z,98136.31
2022-09-03T00:51:03.169Z,98135.69
2022-09-03T00:53:55.070Z,98134.44
2022-09-03T00:56:44.822Z,98133.69
2022-09-03T00:59:25.358Z,98126.97
2022-09-03T01:02:17.607Z,98131.31
2022-09-03T01:05:00.135Z,98136.88
2022-09-03T01:07:40.719Z,98130.34
2022-09-03T01:10:19.357Z,98134.59
2022-09-03T01:13:20.708Z,98126.31
2022-09-03T01:15:50.602Z,98125.50
2022-09-03T01:18:30.909Z,98121.31
2022-09-03T01:21:06.886Z,98127.72
2022-09-03T01:23:57.072Z,98126.41
2022-09-03T01:26:52.048Z,98124.09
2022-09-03T01:29:35.432Z,98127.47
2022-09-03T01:32:14.090Z,98123.34
2022-09-03T01:35:05.200Z,98119.16
2022-09-03T01:37:35.803Z,98119.72
2022-09-03T01:40:19.005Z,98124.78
2022-09-03T01:43:07.078Z,98115.31
2022-09-03T01:46:00.509Z,98120.44
2022-09-03T01:48:50.741Z,98117.25
2022-09-03T01:51:23.941Z,98119.66
2022-09-03T01:54:31.348Z,98126.53
2022-09-03T01:57:35.657Z,98120.06
2022-09-03T02:00:13.429Z,98121.53
2022-09-03T02:02:43.688Z,98120.44
2022-09-03T02:05:15.029Z,98118.13
2022-09-03T02:07:46.963Z,98118.25
2022-09-03T02:10:22.054Z,98117.19
2022-09-03T02:12:52.866Z,98116.31
2022-09-03T02:15:22.334Z,98124.09
2022-09-03T02:17:50.422Z,98118.84
2022-09-03T02:20:21.135Z,98126.47
2022-09-03T02:22:49.232Z,98130.50
2022-09-03T02:25:17.309Z,98131.81
2022-09-03T02:27:45.004Z,98131.44
2022-09-03T02:30:12.426Z,98121.66
2022-09-03T02:32:39.376Z,98127.03
2022-09-03T02:35:07.046Z,98129.09
2022-09-03T02:37:34.017Z,98134.78
2022-09-03T02:40:01.262Z,98131.59
2022-09-03T02:42:28.249Z,98131.44
2022-09-03T02:45:03.148Z,98126.00
2022-09-03T02:47:32.437Z,98127.41
2022-09-03T02:49:59.391Z,98129.94
2022-09-03T02:52:26.418Z,98135.44
2022-09-03T02:54:53.328Z,98133.94
2022-09-03T02:57:27.465Z,98137.12
2022-09-03T02:59:55.223Z,98129.72
2022-09-03T03:02:22.207Z,98134.37
2022-09-03T03:04:49.505Z,98132.50
2022-09-03T03:07:16.516Z,98128.00
2022-09-03T03:09:44.249Z,98129.06
2022-09-03T03:12:11.151Z,98135.97
2022-09-03T03:14:38.157Z,98135.63
2022-09-03T03:17:05.280Z,98141.81
2022-09-03T03:19:32.227Z,98140.19
2022-09-03T03:21:59.255Z,98141.91
2022-09-03T03:24:26.194Z,98142.13
2022-09-03T03:26:58.252Z,98148.53
2022-09-03T03:29:25.456Z,98146.53
2022-09-03T03:31:52.950Z,98148.81
2022-09-03T03:34:19.900Z,98151.06
2022-09-03T03:36:46.842Z,98159.75
2022-09-03T03:39:14.742Z,98148.31
2022-09-03T03:41:41.901Z,98145.78
2022-09-03T03:44:09.227Z,98156.31
2022-09-03T03:46:38.502Z,98151.84
2022-09-03T03:49:06.919Z,98146.53
2022-09-03T03:51:34.415Z,98153.12
2022-09-03T03:54:05.059Z,98153.31
2022-09-03T03:56:32.918Z,98157.63
2022-09-03T03:59:00.128Z,98152.75
2022-09-03T04:01:28.153Z,98158.91
2022-09-03T04:03:56.290Z,98160.69
2022-09-03T04:06:24.005Z,98166.06
2022-09-03T04:08:51.025Z,98156.03
2022-09-03T04:11:20.002Z,98167.09
2022-09-03T04:13:47.471Z,98165.56
2022-09-03T04:16:19.052Z,98174.66
2022-09-03T04:18:46.492Z,98175.19
2022-09-03T04:21:21.640Z,98171.25
2022-09-03T04:23:50.076Z,98171.97
2022-09-03T04:26:19.943Z,98162.66
2022-09-03T04:28:47.086Z,98156.03
2022-09-03T04:31:16.275Z,98153.19
2022-09-03T04:33:43.374Z,98153.97
2022-09-03T04:36:11.411Z,98149.91
2022-09-03T04:38:41.609Z,98160.22
2022-09-03T04:41:10.454Z,98157.56
2022-09-03T04:43:37.654Z,98167.25
2022-09-03T04:46:16.180Z,98167.28
2022-09-03T04:48:44.817Z,98183.00
2022-09-03T04:51:15.092Z,98180.88
2022-09-03T04:53:43.783Z,98183.97
2022-09-03T04:56:18.646Z,98190.44
2022-09-03T04:58:45.984Z,98184.28
2022-09-03T05:01:18.332Z,98185.97
2022-09-03T05:03:45.452Z,98180.31
2022-09-03T05:06:13.238Z,98181.03
2022-09-03T05:08:40.594Z,98181.16
2022-09-03T05:11:08.634Z,98180.91
2022-09-03T05:13:37.223Z,98181.03
2022-09-03T05:16:09.288Z,98189.94
2022-09-03T05:18:36.823Z,98177.75
2022-09-03T05:21:08.901Z,98186.19
2022-09-03T05:23:41.101Z,98182.41
2022-09-03T05:26:10.953Z,98186.13
2022-09-03T05:28:40.426Z,98184.94
2022-09-03T05:31:12.790Z,98182.44
2022-09-03T05:33:42.606Z,98183.72
2022-09-03T05:36:12.209Z,98186.03
2022-09-03T05:38:39.816Z,98185.03
2022-09-03T05:41:09.849Z,98193.44
2022-09-03T05:43:37.183Z,98184.66
2022-09-03T05:46:06.822Z,98189.41
2022-09-03T05:48:35.725Z,98189.06
2022-09-03T05:51:04.725Z,98183.59
2022-09-03T05:53:34.291Z,98187.25
2022-09-03T05:56:03.002Z,98189.91
2022-09-03T05:58:34.112Z,98186.00
2022-09-03T06:01:03.263Z,98197.31
2022-09-03T06:03:30.231Z,98194.81
2022-09-03T06:05:57.675Z,98189.38
2022-09-03T06:08:24.611Z,98193.56
2022-09-03T06:10:51.911Z,98190.69
2022-09-03T06:13:18.844Z,98190.31
2022-09-03T06:15:45.782Z,98196.09
2022-09-03T06:18:12.670Z,98191.31
2022-09-03T06:20:39.623Z,98189.22
2022-09-03T06:23:06.575Z,98175.66
2022-09-03T06:25:33.534Z,98182.97
2022-09-03T06:28:00.449Z,98182.09
2022-09-03T06:30:27.468Z,98178.66
2022-09-03T06:32:54.460Z,98186.87
2022-09-03T06:35:21.365Z,98182.16
2022-09-03T06:37:48.255Z,98186.31
2022-09-03T06:40:20.765Z,98188.03
2022-09-03T06:42:56.512Z,98176.97
2022-09-03T06:45:23.425Z,98173.50
2022-09-03T06:47:50.344Z,98180.19
2022-09-03T06:50:18.408Z,98176.53
2022-09-03T06:52:45.301Z,98175.53
2022-09-03T06:55:12.245Z,98168.75
2022-09-03T06:57:39.133Z,98167.66
2022-09-03T07:00:07.291Z,98173.69
2022-09-03T07:02:34.220Z,98168.53
2022-09-03T07:05:01.398Z,98164.34
2022-09-03T07:07:28.287Z,98176.72
2022-09-03T07:09:55.242Z,98178.84
2022-09-03T07:12:22.162Z,98184.75
2022-09-03T07:14:51.193Z,98176.56
2022-09-03T07:17:18.229Z,98176.91
2022-09-03T07:19:45.240Z,98168.09
2022-09-03T07:22:12.315Z,98177.53
2022-09-03T07:24:39.463Z,98178.66
2022-09-03T07:27:08.383Z,98179.13
2022-09-03T07:29:36.726Z,98178.44
2022-09-03T07:32:04.022Z,98178.00
2022-09-03T07:34:30.962Z,98183.62
2022-09-03T07:36:57.851Z,98186.81
2022-09-03T07:39:24.895Z,98176.03
2022-09-03T07:41:51.956Z,98188.63
2022-09-03T07:44:22.998Z,98180.56
2022-09-03T07:46:51.634Z,98185.69
2022-09-03T07:49:20.400Z,98181.72
2022-09-03T07:51:50.949Z,98183.97
2022-09-03T07:54:18.003Z,98193.31
2022-09-03T07:56:44.935Z,98187.50
2022-09-03T07:59:12.240Z,98190.84
2022-09-03T08:01:41.600Z,98185.06
2022-09-03T08:04:09.405Z,98186.34
2022-09-03T08:06:37.814Z,98181.88
2022-09-03T08:09:07.484Z,98191.03
2022-09-03T08:11:38.213Z,98190.06
2022-09-03T08:14:10.449Z,98199.53
2022-09-03T08:16:42.531Z,98192.19
2022-09-03T08:19:10.622Z,98190.38
2022-09-03T08:21:37.904Z,98188.28
2022-09-03T08:24:05.054Z,98194.50
2022-09-03T08:26:37.581Z,98198.72
2022-09-03T08:29:05.638Z,98187.34
2022-09-03T08:31:33.211Z,98197.66
2022-09-03T08:34:07.034Z,98194.13
2022-09-03T08:36:36.461Z,98194.87
2022-09-03T08:39:08.265Z,98193.66
2022-09-03T08:41:44.650Z,98186.94
2022-09-03T08:44:25.165Z,98192.03
2022-09-03T08:46:52.171Z,98195.34
2022-09-03T08:49:33.217Z,98187.72
2022-09-03T08:52:03.691Z,98188.97
2022-09-03T08:54:32.073Z,98185.78
2022-09-03T08:57:02.178Z,98182.62
2022-09-03T08:59:32.910Z,98190.09
2022-09-03T09:02:12.169Z,98183.09
2022-09-03T09:05:03.871Z,98182.91
2022-09-03T09:07:53.613Z,98172.09
2022-09-03T09:10:47.733Z,98179.03
2022-09-03T09:13:24.682Z,98171.03
2022-09-03T09:16:18.970Z,98165.88
2022-09-03T09:19:11.723Z,98168.62
2022-09-03T09:21:46.249Z,98166.56
2022-09-03T09:24:43.076Z,98158.78
2022-09-03T09:27:15.409Z,98152.62
2022-09-03T09:29:44.905Z,98161.81
2022-09-03T09:32:13.202Z,98159.09
2022-09-03T09:34:41.497Z,98168.09
2022-09-03T09:37:16.122Z,98175.50
2022-09-03T09:39:58.547Z,98176.81
2022-09-03T09:42:26.177Z,98176.59
2022-09-03T09:44:53.320Z,98176.44
2022-09-03T09:47:26.787Z,98184.34
2022-09-03T09:50:00.383Z,98182.72
2022-09-03T09:52:29.710Z,98175.28
2022-09-03T09:55:08.553Z,98180.44
2022-09-03T09:57:37.448Z,98176.72
2022-09-03T10:00:12.440Z,98183.19
2022-09-03T10:02:51.039Z,98175.53
2022-09-03T10:05:26.618Z,98178.59
2022-09-03T10:08:01.491Z,98177.84
2022-09-03T10:10:29.636Z,98173.75
2022-09-03T10:13:36.548Z,98175.53
2022-09-03T10:16:28.186Z,98176.41
2022-09-03T10:19:15.714Z,98171.56
2022-09-03T10:22:06.206Z,98165.00
2022-09-03T10:24:58.510Z,98165.28
2022-09-03T10:27:26.133Z,98171.84
2022-09-03T10:29:53.633Z,98163.81
2022-09-03T10:32:27.505Z,98164.84
2022-09-03T10:35:30.879Z,98172.75
2022-09-03T10:38:19.367Z,98166.91
2022-09-03T10:41:02.757Z,98170.50
2022-09-03T10:43:36.798Z,98172.37
2022-09-03T10:46:08.400Z,98178.56
2022-09-03T10:49:01.553Z,98163.28
2022-09-03T10:51:35.811Z,98167.31
2022-09-03T10:54:20.863Z,98171.22
2022-09-03T10:57:16.577Z,98173.63
2022-09-03T11:00:06.592Z,98155.97
2022-09-03T11:03:01.198Z,98166.63
2022-09-03T11:05:31.751Z,98170.09
2022-09-03T11:08:02.847Z,98162.47
2022-09-03T11:10:32.408Z,98167.47
2022-09-03T11:13:13.465Z,98159.91
2022-09-03T11:15:42.787Z,98168.00
2022-09-03T11:18:28.338Z,98160.09
2022-09-03T11:21:02.102Z,98163.19
2022-09-03T11:23:33.712Z,98163.47
2022-09-03T11:26:05.257Z,98163.63
2022-09-03T11:28:53.424Z,98151.38
2022-09-03T11:31:38.663Z,98163.63
2022-09-03T11:34:14.108Z,98154.75
2022-09-03T11:36:50.402Z,98161.09
2022-09-03T11:39:23.510Z,98165.38
2022-09-03T11:42:04.710Z,98161.66
2022-09-03T11:44:42.703Z,98169.72
2022-09-03T11:47:26.010Z,98172.56
2022-09-03T11:49:54.003Z,98156.56
2022-09-03T11:52:29.069Z,98163.09
2022-09-03T11:54:56.284Z,98170.94
2022-09-03T11:57:30.892Z,98163.75
2022-09-03T12:00:13.566Z,98167.84
2022-09-03T12:02:56.770Z,98174.81
2022-09-03T12:05:51.830Z,98166.44
2022-09-03T12:08:45.138Z,98174.94
2022-09-03T12:11:53.804Z,98159.22
2022-09-03T12:14:23.915Z,98157.37
2022-09-03T12:17:09.370Z,98154.94
2022-09-03T12:19:51.538Z,98166.50
2022-09-03T12:22:19.629Z,98156.66
2022-09-03T12:24:48.321Z,98155.25
2022-09-03T12:27:24.434Z,98154.22
2022-09-03T12:30:02.329Z,98150.34
2022-09-03T12:32:37.469Z,98154.59
2022-09-03T12:38:18.250Z,98157.47
2022-09-03T12:43:42.407Z,98155.25
2022-09-03T12:46:17.895Z,98147.00
2022-09-03T12:51:52.311Z,98150.09
2022-09-03T12:54:22.359Z,98139.81
2022-09-03T12:56:55.623Z,98136.91
2022-09-03T12:59:22.697Z,98132.09
2022-09-03T13:01:53.651Z,98127.19
2022-09-03T13:04:27.100Z,98135.50
2022-09-03T13:06:57.624Z,98125.94
2022-09-03T13:09:27.062Z,98136.78
2022-09-03T13:11:55.719Z,98132.38
2022-09-03T13:14:22.951Z,98122.56
2022-09-03T13:17:08.675Z,98124.16
2022-09-03T13:19:59.897Z,98115.62
2022-09-03T13:23:13.785Z,98112.25
2022-09-03T13:26:08.882Z,98105.44
2022-09-03T13:29:13.895Z,98104.09
2022-09-03T13:31:54.021Z,98100.59
2022-09-03T13:34:25.665Z,98118.28
2022-09-03T13:36:59.053Z,98117.41
2022-09-03T13:39:29.958Z,98107.09
2022-09-03T13:42:12.201Z,98101.66
2022-09-03T13:44:47.910Z,98098.03
2022-09-03T13:47:28.394Z,98084.75
2022-09-03T13:50:23.225Z,98090.78
2022-09-03T13:53:07.075Z,98086.78
2022-09-03T13:55:50.451Z,98086.91
2022-09-03T13:58:30.784Z,98083.78
2022-09-03T14:00:58.594Z,98083.34
2022-09-03T14:03:35.815Z,98086.75
2022-09-03T14:06:21.983Z,98090.66
2022-09-03T14:09:21.702Z,98087.37
2022-09-03T14:12:21.562Z,98085.91
2022-09-03T14:14:59.883Z,98092.97
2022-09-03T14:18:23.890Z,98093.53
2022-09-03T14:21:20.021Z,98098.50
2022-09-03T14:24:14.731Z,98096.69
2022-09-03T14:26:51.980Z,98093.66
2022-09-03T14:29:23.923Z,98100.69
2022-09-03T14:32:24.408Z,98094.91
2022-09-03T14:35:35.638Z,98096.47
2022-09-03T14:38:11.772Z,98082.13
2022-09-03T14:40:50.619Z,98091.97
2022-09-03T14:43:27.698Z,98083.91
2022-09-03T14:46:15.487Z,98082.25
2022-09-03T14:49:07.278Z,98076.78
2022-09-03T14:52:08.092Z,98070.63
2022-09-03T14:54:47.062Z,98071.78
2022-09-03T14:57:30.515Z,98075.50
2022-09-03T15:00:18.666Z,98079.66
2022-09-03T15:03:31.621Z,98075.22
2022-09-03T15:06:15.741Z,98072.69
2022-09-03T15:08:57.857Z,98075.72
2022-09-03T15:11:27.960Z,98076.66
2022-09-03T15:14:00.585Z,98073.66
2022-09-03T15:16:40.810Z,98071.09
2022-09-03T15:19:14.093Z,98075.72
2022-09-03T15:22:18.887Z,98062.75
2022-09-03T15:24:53.924Z,98059.03
2022-09-03T15:27:52.746Z,98073.03
2022-09-03T15:30:21.074Z,98066.28
2022-09-03T15:33:29.352Z,98064.78
2022-09-03T15:36:18.753Z,98077.56
2022-09-03T15:39:05.874Z,98073.75
2022-09-03T15:41:41.962Z,98078.16
2022-09-03T15:44:19.417Z,98082.09
2022-09-03T15:46:52.370Z,98072.28
2022-09-03T15:49:24.892Z,98077.03
2022-09-03T15:52:01.732Z,98072.09
2022-09-03T15:54:31.542Z,98077.31
2022-09-03T15:57:09.700Z,98073.69
2022-09-03T15:59:49.258Z,98078.94
2022-09-03T16:02:26.612Z,98076.62
2022-09-03T16:05:06.159Z,98072.84
2022-09-03T16:07:39.011Z,98073.47
2022-09-03T16:10:26.606Z,98072.81
2022-09-03T16:13:05.332Z,98079.69
2022-09-03T16:15:47.352Z,98078.16
2022-09-03T16:18:34.360Z,98081.50
2022-09-03T16:21:26.182Z,98086.25
2022-09-03T16:24:14.353Z,98085.03
2022-09-03T16:26:50.696Z,98081.91
2022-09-03T16:29:19.289Z,98089.38
2022-09-03T16:32:09.765Z,98090.97
2022-09-03T16:35:00.268Z,98092.62
2022-09-03T16:37:51.962Z,98094.38
2022-09-03T16:40:45.464Z,98098.09
2022-09-03T16:43:39.510Z,98090.25
2022-09-03T16:46:26.498Z,98086.66
2022-09-03T16:49:16.896Z,98087.41
2022-09-03T16:51:53.598Z,98093.00
2022-09-03T16:54:27.689Z,98088.16
2022-09-03T16:56:55.742Z,98092.28
2022-09-03T16:59:39.734Z,98080.47
2022-09-03T17:02:40.678Z,98083.19
2022-09-03T17:05:20.572Z,98091.62
2022-09-03T17:08:16.202Z,98094.91
2022-09-03T17:11:08.982Z,98093.00
2022-09-03T17:13:45.892Z,98097.81
2022-09-03T17:16:24.471Z,98103.66
2022-09-03T17:19:14.310Z,98103.50
2022-09-03T17:22:03.032Z,98104.09
2022-09-03T17:24:33.745Z,98108.56
2022-09-03T17:27:15.524Z,98108.97
2022-09-03T17:30:05.827Z,98110.97
2022-09-03T17:32:57.335Z,98109.22
2022-09-03T17:35:43.378Z,98109.78
2022-09-03T17:38:30.503Z,98110.72
2022-09-03T17:41:23.637Z,98121.56
2022-09-03T17:44:15.038Z,98117.22
2022-09-03T17:46:47.798Z,98118.56
2022-09-03T17:49:23.823Z,98123.00
2022-09-03T17:52:07.758Z,98122.38
2022-09-03T17:54:41.312Z,98124.34
2022-09-03T17:57:31.474Z,98122.00
2022-09-03T18:00:02.613Z,98135.31
2022-09-03T18:02:31.412Z,98138.81
2022-09-03T18:05:18.052Z,98143.81
2022-09-03T18:07:52.917Z,98141.19
2022-09-03T18:10:43.931Z,98141.34
2022-09-03T18:13:23.518Z,98146.88
2022-09-03T18:16:16.987Z,98145.41
2022-09-03T18:18:51.426Z,98149.44
2022-09-03T18:21:40.697Z,98151.59
2022-09-03T18:24:54.060Z,98154.00
2022-09-03T18:27:40.244Z,98155.87
2022-09-03T18:30:31.297Z,98152.75
2022-09-03T18:33:17.083Z,98153.34
2022-09-03T18:36:04.192Z,98151.81
2022-09-03T18:38:55.295Z,98157.00
2022-09-03T18:42:07.409Z,98164.34
2022-09-03T18:45:22.877Z,98156.09
2022-09-03T18:48:20.252Z,98158.69
2022-09-03T18:51:20.804Z,98161.88
2022-09-03T18:54:25.463Z,98161.34
2022-09-03T18:57:11.728Z,98162.19
2022-09-03T19:00:09.974Z,98157.63
2022-09-03T19:03:06.204Z,98163.09
2022-09-03T19:06:13.428Z,98154.69
2022-09-03T19:09:20.774Z,98156.37
2022-09-03T19:12:50.098Z,98160.94
2022-09-03T19:15:48.060Z,98153.56
2022-09-03T19:18:45.783Z,98159.34
2022-09-03T19:21:59.926Z,98156.47
2022-09-03T19:24:48.779Z,98165.59
2022-09-03T19:28:00.149Z,98163.66
2022-09-03T19:31:12.418Z,98172.91
2022-09-03T19:34:03.812Z,98164.31
2022-09-03T19:37:03.746Z,98165.84
2022-09-03T19:40:14.124Z,98169.53
2022-09-03T19:43:28.757Z,98164.66
2022-09-03T19:46:38.996Z,98165.44
2022-09-03T19:49:35.064Z,98164.69
2022-09-03T19:52:39.012Z,98173.28
2022-09-03T19:55:24.586Z,98165.31
2022-09-03T19:58:41.547Z,98166.84
2022-09-03T20:01:23.174Z,98163.66
2022-09-03T20:04:09.836Z,98169.53
2022-09-03T20:06:55.564Z,98169.63
2022-09-03T20:09:42.174Z,98177.09
2022-09-03T20:12:10.153Z,98173.72
2022-09-03T20:14:37.691Z,98176.06
2022-09-03T20:17:43.217Z,98188.50
2022-09-03T20:20:25.039Z,98192.56
2022-09-03T20:23:01.380Z,98187.81
2022-09-03T20:25:53.239Z,98194.06
2022-09-03T20:28:54.902Z,98195.53
2022-09-03T20:31:40.084Z,98197.81
2022-09-03T20:34:25.233Z,98206.78
2022-09-03T20:37:42.623Z,98199.94
2022-09-03T20:40:15.320Z,98208.22
2022-09-03T20:43:02.223Z,98206.25
2022-09-03T20:45:32.139Z,98202.75
2022-09-03T20:48:25.415Z,98210.25
2022-09-03T20:51:02.879Z,98209.66
2022-09-03T20:53:35.597Z,98208.63
2022-09-03T20:56:41.253Z,98212.34
2022-09-03T20:59:26.603Z,98215.34
2022-09-03T21:02:06.236Z,98217.09
2022-09-03T21:04:53.244Z,98218.25
2022-09-03T21:07:45.114Z,98218.19
2022-09-03T21:10:38.188Z,98219.50
2022-09-03T21:13:23.847Z,98227.56
2022-09-03T21:16:24.693Z,98223.81
2022-09-03T21:19:09.870Z,98222.97
2022-09-03T21:21:48.858Z,98221.69
2022-09-03T21:24:20.077Z,98227.19
2022-09-03T21:26:52.293Z,98230.50
2022-09-03T21:29:27.614Z,98226.72
2022-09-03T21:32:09.818Z,98222.72
2022-09-03T21:34:58.502Z,98228.50
2022-09-03T21:37:25.383Z,98233.72
2022-09-03T21:39:56.026Z,98229.28
2022-09-03T21:42:44.671Z,98228.56
2022-09-03T21:45:18.397Z,98227.56
2022-09-03T21:47:49.126Z,98235.19
2022-09-03T21:50:20.449Z,98233.28
2022-09-03T21:52:59.326Z,98239.75
2022-09-03T21:55:55.384Z,98237.31
2022-09-03T21:59:00.708Z,98242.50
2022-09-03T22:01:46.104Z,98234.97
2022-09-03T22:04:13.094Z,98237.31
2022-09-03T22:06:57.152Z,98235.66
2022-09-03T22:09:41.323Z,98240.87
2022-09-03T22:12:19.002Z,98232.84
2022-09-03T22:14:49.121Z,98240.50
2022-09-03T22:17:24.128Z,98241.00
2022-09-03T22:19:51.114Z,98246.34
2022-09-03T22:22:27.845Z,98242.72
2022-09-03T22:25:05.983Z,98237.72
2022-09-03T22:27:38.010Z,98241.25
2022-09-03T22:30:12.385Z,98247.63
2022-09-03T22:32:45.795Z,98240.63
2022-09-03T22:35:22.175Z,98240.97
2022-09-03T22:38:05.452Z,98232.03
2022-09-03T22:40:43.472Z,98237.69
2022-09-03T22:43:13.059Z,98245.53
2022-09-03T22:46:03.207Z,98240.81
2022-09-03T22:48:41.018Z,98247.22
2022-09-03T22:51:09.353Z,98252.78
2022-09-03T22:53:58.254Z,98249.44
2022-09-03T22:56:25.372Z,98245.53
2022-09-03T22:58:58.425Z,98250.91
2022-09-03T23:01:31.632Z,98241.59
2022-09-03T23:04:13.834Z,98249.56
2022-09-03T23:06:51.160Z,98251.59
2022-09-03T23:09:22.537Z,98252.00
2022-09-03T23:12:01.666Z,98251.59
2022-09-03T23:14:41.532Z,98257.16
2022-09-03T23:17:13.479Z,98249.38
2022-09-03T23:19:49.456Z,98244.94
2022-09-03T23:22:38.960Z,98256.16
2022-09-03T23:25:19.949Z,98258.94
2022-09-03T23:27:53.790Z,98255.13
2022-09-03T23:30:20.822Z,98253.81
2022-09-03T23:32:53.609Z,98260.34
2022-09-03T23:35:22.314Z,98258.09
2022-09-03T23:38:04.479Z,98256.28
2022-09-03T23:40:45.839Z,98255.66
2022-09-03T23:43:39.087Z,98255.34
2022-09-03T23:46:27.169Z,98259.34
2022-09-03T23:49:13.234Z,98244.09
2022-09-03T23:51:54.471Z,98244.91
2022-09-03T23:54:47.519Z,98251.81
2022-09-03T23:57:24.955Z,98250.19
